sensor_id;sensor_type;location;lat;lon;timestamp;P1;durP1;ratioP1;P2;durP2;ratioP2
21416;SDS011;10869;52.238;10.716;2022-10-16T03:36:29;5.10;;;2.40;;
21416;SDS011;10869;52.238;10.716;2022-10-16T03:38:55;8.23;;;2.00;;
21416;SDS011;10869;52.238;10.716;2022-10-16T03:41:20;4.93;;;1.90;;
21416;SDS011;10869;52.238;10.716;2022-10-16T03:43:46;5.37;;;2.03;;
21416;SDS011;10869;52.238;10.716;2022-10-16T03:46:12;3.43;;;1.80;;
21416;SDS011;10869;52.238;10.716;2022-10-16T03:48:38;6.50;;;2.20;;
21416;SDS011;10869;52.238;10.716;2022-10-16T03:51:05;3.90;;;2.20;;
21416;SDS011;10869;52.238;10.716;2022-10-16T03:53:30;5.20;;;2.00;;
21416;SDS011;10869;52.238;10.716;2022-10-16T03:55:56;6.60;;;1.97;;
21416;SDS011;10869;52.238;10.716;2022-10-16T03:58:23;6.50;;;2.20;;
21416;SDS011;10869;52.238;10.716;2022-10-16T04:00:49;4.40;;;2.43;;
21416;SDS011;10869;52.238;10.716;2022-10-16T04:03:15;5.50;;;2.43;;
21416;SDS011;10869;52.238;10.716;2022-10-16T04:05:40;5.73;;;1.93;;
21416;SDS011;10869;52.238;10.716;2022-10-16T04:08:06;4.93;;;1.97;;
21416;SDS011;10869;52.238;10.716;2022-10-16T04:10:32;6.87;;;2.70;;
21416;SDS011;10869;52.238;10.716;2022-10-16T04:12:58;4.20;;;2.30;;
21416;SDS011;10869;52.238;10.716;2022-10-16T04:15:24;5.37;;;2.40;;
21416;SDS011;10869;52.238;10.716;2022-10-16T04:17:51;6.33;;;2.37;;
21416;SDS011;10869;52.238;10.716;2022-10-16T04:20:17;6.00;;;2.23;;
21416;SDS011;10869;52.238;10.716;2022-10-16T04:22:43;5.10;;;2.37;;
21416;SDS011;10869;52.238;10.716;2022-10-16T04:25:09;8.90;;;2.93;;
21416;SDS011;10869;52.238;10.716;2022-10-16T04:27:36;7.40;;;2.40;;
21416;SDS011;10869;52.238;10.716;2022-10-16T04:30:03;6.80;;;2.33;;
21416;SDS011;10869;52.238;10.716;2022-10-16T04:32:29;8.37;;;2.67;;
21416;SDS011;10869;52.238;10.716;2022-10-16T04:34:55;7.17;;;2.90;;
21416;SDS011;10869;52.238;10.716;2022-10-16T04:37:24;3.97;;;2.50;;
21416;SDS011;10869;52.238;10.716;2022-10-16T04:39:51;8.53;;;2.77;;
21416;SDS011;10869;52.238;10.716;2022-10-16T04:42:18;11.33;;;3.50;;
21416;SDS011;10869;52.238;10.716;2022-10-16T04:44:44;6.60;;;2.67;;
21416;SDS011;10869;52.238;10.716;2022-10-16T04:47:10;6.50;;;3.20;;
21416;SDS011;10869;52.238;10.716;2022-10-16T04:49:36;5.70;;;2.60;;
21416;SDS011;10869;52.238;10.716;2022-10-16T04:52:01;5.77;;;2.80;;
21416;SDS011;10869;52.238;10.716;2022-10-16T04:54:27;5.27;;;2.60;;
21416;SDS011;10869;52.238;10.716;2022-10-16T04:56:53;11.07;;;2.97;;
21416;SDS011;10869;52.238;10.716;2022-10-16T04:59:19;9.13;;;3.30;;
21416;SDS011;10869;52.238;10.716;2022-10-16T05:01:46;4.10;;;2.27;;
21416;SDS011;10869;52.238;10.716;2022-10-16T05:04:12;6.20;;;2.50;;
21416;SDS011;10869;52.238;10.716;2022-10-16T05:06:39;6.37;;;2.40;;
21416;SDS011;10869;52.238;10.716;2022-10-16T05:09:06;6.70;;;2.17;;
21416;SDS011;10869;52.238;10.716;2022-10-16T05:11:32;5.30;;;2.47;;
21416;SDS011;10869;52.238;10.716;2022-10-16T05:13:58;10.20;;;2.50;;
21416;SDS011;10869;52.238;10.716;2022-10-16T05:16:24;5.40;;;2.03;;
21416;SDS011;10869;52.238;10.716;2022-10-16T05:18:53;5.93;;;2.40;;
21416;SDS011;10869;52.238;10.716;2022-10-16T05:21:19;6.43;;;3.07;;
21416;SDS011;10869;52.238;10.716;2022-10-16T05:23:45;6.07;;;2.73;;
21416;SDS011;10869;52.238;10.716;2022-10-16T05:26:11;5.70;;;3.00;;
21416;SDS011;10869;52.238;10.716;2022-10-16T05:28:37;4.37;;;2.57;;
21416;SDS011;10869;52.238;10.716;2022-10-16T05:31:07;7.43;;;2.30;;
21416;SDS011;10869;52.238;10.716;2022-10-16T05:33:34;5.50;;;2.60;;
21416;SDS011;10869;52.238;10.716;2022-10-16T05:36:01;4.97;;;2.80;;
21416;SDS011;10869;52.238;10.716;2022-10-16T05:38:32;4.53;;;2.37;;
21416;SDS011;10869;52.238;10.716;2022-10-16T05:40:58;5.03;;;2.50;;
21416;SDS011;10869;52.238;10.716;2022-10-16T05:43:24;7.90;;;2.73;;
21416;SDS011;10869;52.238;10.716;2022-10-16T05:45:58;7.70;;;2.30;;
21416;SDS011;10869;52.238;10.716;2022-10-16T05:48:29;5.33;;;2.03;;
21416;SDS011;10869;52.238;10.716;2022-10-16T05:50:59;9.90;;;2.93;;
21416;SDS011;10869;52.238;10.716;2022-10-16T05:53:29;9.17;;;3.17;;
21416;SDS011;10869;52.238;10.716;2022-10-16T05:55:56;5.33;;;2.20;;
21416;SDS011;10869;52.238;10.716;2022-10-16T05:58:23;5.43;;;2.13;;
21416;SDS011;10869;52.238;10.716;2022-10-16T06:00:56;7.03;;;1.73;;
21416;SDS011;10869;52.238;10.716;2022-10-16T06:03:26;4.57;;;2.03;;
21416;SDS011;10869;52.238;10.716;2022-10-16T06:05:53;2.43;;;1.07;;
21416;SDS011;10869;52.238;10.716;2022-10-16T06:08:19;4.33;;;1.40;;
21416;SDS011;10869;52.238;10.716;2022-10-16T06:10:47;7.13;;;1.67;;
21416;SDS011;10869;52.238;10.716;2022-10-16T06:13:13;3.30;;;1.50;;
21416;SDS011;10869;52.238;10.716;2022-10-16T06:15:41;5.00;;;1.43;;
21416;SDS011;10869;52.238;10.716;2022-10-16T06:18:09;5.60;;;1.73;;
21416;SDS011;10869;52.238;10.716;2022-10-16T06:20:37;3.43;;;1.70;;
21416;SDS011;10869;52.238;10.716;2022-10-16T06:23:03;3.47;;;1.50;;
21416;SDS011;10869;52.238;10.716;2022-10-16T06:25:31;2.60;;;1.40;;
21416;SDS011;10869;52.238;10.716;2022-10-16T06:28:00;3.83;;;1.43;;
21416;SDS011;10869;52.238;10.716;2022-10-16T06:30:26;3.77;;;1.43;;
21416;SDS011;10869;52.238;10.716;2022-10-16T06:32:52;4.73;;;1.63;;
21416;SDS011;10869;52.238;10.716;2022-10-16T06:35:19;4.57;;;1.80;;
21416;SDS011;10869;52.238;10.716;2022-10-16T06:37:45;5.90;;;1.80;;
21416;SDS011;10869;52.238;10.716;2022-10-16T06:40:10;4.50;;;1.70;;
21416;SDS011;10869;52.238;10.716;2022-10-16T06:46:03;4.03;;;1.70;;
21416;SDS011;10869;52.238;10.716;2022-10-16T06:48:50;5.03;;;1.80;;
21416;SDS011;10869;52.238;10.716;2022-10-16T06:51:53;2.97;;;1.50;;
21416;SDS011;10869;52.238;10.716;2022-10-16T06:54:19;3.90;;;1.60;;
21416;SDS011;10869;52.238;10.716;2022-10-16T06:56:45;5.90;;;1.70;;
21416;SDS011;10869;52.238;10.716;2022-10-16T06:59:11;5.70;;;1.90;;
21416;SDS011;10869;52.238;10.716;2022-10-16T07:05:00;4.90;;;1.90;;
21416;SDS011;10869;52.238;10.716;2022-10-16T07:07:26;4.40;;;1.60;;
21416;SDS011;10869;52.238;10.716;2022-10-16T07:09:52;5.27;;;2.10;;
21416;SDS011;10869;52.238;10.716;2022-10-16T07:12:18;3.63;;;1.73;;
21416;SDS011;10869;52.238;10.716;2022-10-16T07:14:44;4.77;;;2.20;;
21416;SDS011;10869;52.238;10.716;2022-10-16T07:17:11;4.40;;;2.07;;
21416;SDS011;10869;52.238;10.716;2022-10-16T07:23:02;4.27;;;1.97;;
21416;SDS011;10869;52.238;10.716;2022-10-16T07:25:28;2.73;;;1.63;;
21416;SDS011;10869;52.238;10.716;2022-10-16T07:27:54;3.23;;;1.70;;
21416;SDS011;10869;52.238;10.716;2022-10-16T07:30:21;4.03;;;2.00;;
21416;SDS011;10869;52.238;10.716;2022-10-16T07:32:46;2.03;;;1.33;;
21416;SDS011;10869;52.238;10.716;2022-10-16T07:35:12;5.50;;;1.93;;
21416;SDS011;10869;52.238;10.716;2022-10-16T07:37:39;7.83;;;2.77;;
21416;SDS011;10869;52.238;10.716;2022-10-16T07:40:09;5.07;;;2.03;;
21416;SDS011;10869;52.238;10.716;2022-10-16T07:45:57;4.07;;;1.90;;
21416;SDS011;10869;52.238;10.716;2022-10-16T07:48:30;3.97;;;1.60;;
21416;SDS011;10869;52.238;10.716;2022-10-16T07:54:19;5.77;;;1.67;;
21416;SDS011;10869;52.238;10.716;2022-10-16T08:00:07;5.47;;;1.77;;
21416;SDS011;10869;52.238;10.716;2022-10-16T08:06:01;2.27;;;1.00;;
21416;SDS011;10869;52.238;10.716;2022-10-16T08:08:27;1.83;;;1.03;;
21416;SDS011;10869;52.238;10.716;2022-10-16T08:11:14;3.37;;;1.00;;
21416;SDS011;10869;52.238;10.716;2022-10-16T08:13:40;2.47;;;1.20;;
21416;SDS011;10869;52.238;10.716;2022-10-16T08:16:06;2.27;;;1.00;;
21416;SDS011;10869;52.238;10.716;2022-10-16T08:18:40;3.07;;;1.10;;
21416;SDS011;10869;52.238;10.716;2022-10-16T08:21:07;5.30;;;1.13;;
21416;SDS011;10869;52.238;10.716;2022-10-16T08:23:37;2.40;;;0.90;;
21416;SDS011;10869;52.238;10.716;2022-10-16T08:26:05;1.23;;;0.80;;
21416;SDS011;10869;52.238;10.716;2022-10-16T08:28:33;6.07;;;1.07;;
21416;SDS011;10869;52.238;10.716;2022-10-16T08:31:07;2.40;;;0.97;;
21416;SDS011;10869;52.238;10.716;2022-10-16T08:33:46;8.83;;;1.47;;
21416;SDS011;10869;52.238;10.716;2022-10-16T08:36:16;1.23;;;0.70;;
21416;SDS011;10869;52.238;10.716;2022-10-16T08:38:42;3.20;;;0.97;;
21416;SDS011;10869;52.238;10.716;2022-10-16T08:44:05;2.17;;;0.77;;
21416;SDS011;10869;52.238;10.716;2022-10-16T08:49:58;1.50;;;0.70;;
21416;SDS011;10869;52.238;10.716;2022-10-16T08:52:30;2.10;;;0.80;;
21416;SDS011;10869;52.238;10.716;2022-10-16T08:55:16;5.03;;;0.90;;
21416;SDS011;10869;52.238;10.716;2022-10-16T08:57:58;2.37;;;1.00;;
21416;SDS011;10869;52.238;10.716;2022-10-16T09:00:41;2.53;;;0.77;;
21416;SDS011;10869;52.238;10.716;2022-10-16T09:03:54;4.20;;;0.73;;
21416;SDS011;10869;52.238;10.716;2022-10-16T09:35:27;2.10;;;0.60;;
21416;SDS011;10869;52.238;10.716;2022-10-16T09:37:58;2.83;;;1.00;;
21416;SDS011;10869;52.238;10.716;2022-10-16T09:42:57;5.30;;;0.73;;
21416;SDS011;10869;52.238;10.716;2022-10-16T09:45:35;1.80;;;0.80;;
21416;SDS011;10869;52.238;10.716;2022-10-16T09:48:09;3.10;;;1.07;;
21416;SDS011;10869;52.238;10.716;2022-10-16T09:50:37;1.90;;;0.93;;
21416;SDS011;10869;52.238;10.716;2022-10-16T09:53:15;2.50;;;0.97;;
21416;SDS011;10869;52.238;10.716;2022-10-16T09:55:50;3.03;;;0.70;;
21416;SDS011;10869;52.238;10.716;2022-10-16T09:58:17;1.03;;;0.60;;
21416;SDS011;10869;52.238;10.716;2022-10-16T10:00:53;5.70;;;1.40;;
21416;SDS011;10869;52.238;10.716;2022-10-16T10:06:21;2.90;;;0.70;;
21416;SDS011;10869;52.238;10.716;2022-10-16T10:11:39;6.07;;;1.10;;
21416;SDS011;10869;52.238;10.716;2022-10-16T10:31:04;1.23;;;0.57;;
21416;SDS011;10869;52.238;10.716;2022-10-16T10:34:11;2.43;;;0.53;;
21416;SDS011;10869;52.238;10.716;2022-10-16T10:37:03;2.77;;;0.50;;
21416;SDS011;10869;52.238;10.716;2022-10-16T10:39:49;2.10;;;0.63;;
21416;SDS011;10869;52.238;10.716;2022-10-16T11:07:42;1.93;;;0.47;;
21416;SDS011;10869;52.238;10.716;2022-10-16T11:16:36;2.87;;;0.50;;
21416;SDS011;10869;52.238;10.716;2022-10-16T11:19:19;1.20;;;0.40;;
21416;SDS011;10869;52.238;10.716;2022-10-16T11:22:38;1.03;;;0.50;;
21416;SDS011;10869;52.238;10.716;2022-10-16T11:25:28;1.57;;;0.40;;
21416;SDS011;10869;52.238;10.716;2022-10-16T11:28:11;2.13;;;0.57;;
21416;SDS011;10869;52.238;10.716;2022-10-16T11:33:39;3.83;;;0.70;;
21416;SDS011;10869;52.238;10.716;2022-10-16T11:42:30;5.03;;;0.57;;
21416;SDS011;10869;52.238;10.716;2022-10-16T11:51:09;1.50;;;0.53;;
21416;SDS011;10869;52.238;10.716;2022-10-16T11:53:31;1.63;;;0.73;;
21416;SDS011;10869;52.238;10.716;2022-10-16T11:56:11;3.97;;;0.80;;
21416;SDS011;10869;52.238;10.716;2022-10-16T12:08:03;2.77;;;0.43;;
21416;SDS011;10869;52.238;10.716;2022-10-16T12:16:38;2.57;;;1.00;;
21416;SDS011;10869;52.238;10.716;2022-10-16T12:19:17;3.70;;;0.87;;
21416;SDS011;10869;52.238;10.716;2022-10-16T12:21:50;2.13;;;0.60;;
21416;SDS011;10869;52.238;10.716;2022-10-16T12:26:59;3.83;;;0.70;;
21416;SDS011;10869;52.238;10.716;2022-10-16T12:31:54;2.43;;;0.63;;
21416;SDS011;10869;52.238;10.716;2022-10-16T12:36:54;1.33;;;0.50;;
21416;SDS011;10869;52.238;10.716;2022-10-16T12:39:32;2.37;;;0.77;;
21416;SDS011;10869;52.238;10.716;2022-10-16T12:45:29;3.23;;;0.50;;
21416;SDS011;10869;52.238;10.716;2022-10-16T12:47:57;2.27;;;0.60;;
21416;SDS011;10869;52.238;10.716;2022-10-16T12:53:46;1.17;;;0.40;;
21416;SDS011;10869;52.238;10.716;2022-10-16T12:59:59;4.33;;;0.97;;
21416;SDS011;10869;52.238;10.716;2022-10-16T13:10:04;1.57;;;0.50;;
21416;SDS011;10869;52.238;10.716;2022-10-16T13:13:05;2.27;;;0.57;;
21416;SDS011;10869;52.238;10.716;2022-10-16T13:16:08;5.20;;;0.97;;
21416;SDS011;10869;52.238;10.716;2022-10-16T13:18:44;3.87;;;1.07;;
21416;SDS011;10869;52.238;10.716;2022-10-16T13:21:28;3.47;;;1.00;;
21416;SDS011;10869;52.238;10.716;2022-10-16T13:24:26;3.47;;;0.80;;
21416;SDS011;10869;52.238;10.716;2022-10-16T13:30:17;2.83;;;1.00;;
21416;SDS011;10869;52.238;10.716;2022-10-16T13:33:39;6.03;;;0.93;;
21416;SDS011;10869;52.238;10.716;2022-10-16T13:47:12;4.23;;;0.60;;
21416;SDS011;10869;52.238;10.716;2022-10-16T13:50:06;0.90;;;0.40;;
21416;SDS011;10869;52.238;10.716;2022-10-16T13:53:17;1.97;;;0.40;;
21416;SDS011;10869;52.238;10.716;2022-10-16T13:56:09;4.67;;;0.70;;
21416;SDS011;10869;52.238;10.716;2022-10-16T14:01:25;4.17;;;0.70;;
21416;SDS011;10869;52.238;10.716;2022-10-16T14:12:01;2.17;;;0.87;;
21416;SDS011;10869;52.238;10.716;2022-10-16T14:14:43;3.37;;;0.80;;
21416;SDS011;10869;52.238;10.716;2022-10-16T14:17:24;2.53;;;1.03;;
21416;SDS011;10869;52.238;10.716;2022-10-16T14:19:54;3.53;;;0.63;;
21416;SDS011;10869;52.238;10.716;2022-10-16T14:27:44;5.77;;;1.97;;
21416;SDS011;10869;52.238;10.716;2022-10-16T14:30:14;6.47;;;1.60;;
21416;SDS011;10869;52.238;10.716;2022-10-16T14:38:35;1.10;;;0.40;;
21416;SDS011;10869;52.238;10.716;2022-10-16T14:41:03;2.23;;;0.50;;
21416;SDS011;10869;52.238;10.716;2022-10-16T14:43:37;4.83;;;0.60;;
21416;SDS011;10869;52.238;10.716;2022-10-16T14:51:41;2.67;;;0.70;;
21416;SDS011;10869;52.238;10.716;2022-10-16T14:54:09;3.70;;;0.77;;
21416;SDS011;10869;52.238;10.716;2022-10-16T14:56:53;3.43;;;0.50;;
21416;SDS011;10869;52.238;10.716;2022-10-16T14:59:36;3.70;;;0.70;;
21416;SDS011;10869;52.238;10.716;2022-10-16T15:04:42;3.50;;;0.53;;
21416;SDS011;10869;52.238;10.716;2022-10-16T15:07:08;1.00;;;0.47;;
21416;SDS011;10869;52.238;10.716;2022-10-16T15:09:34;0.93;;;0.43;;
21416;SDS011;10869;52.238;10.716;2022-10-16T15:12:00;3.77;;;0.60;;
21416;SDS011;10869;52.238;10.716;2022-10-16T15:14:26;0.83;;;0.30;;
21416;SDS011;10869;52.238;10.716;2022-10-16T15:20:24;3.23;;;0.43;;
21416;SDS011;10869;52.238;10.716;2022-10-16T15:22:58;1.43;;;0.77;;
21416;SDS011;10869;52.238;10.716;2022-10-16T15:25:45;2.47;;;0.60;;
21416;SDS011;10869;52.238;10.716;2022-10-16T15:28:21;2.00;;;0.87;;
21416;SDS011;10869;52.238;10.716;2022-10-16T15:34:11;4.27;;;1.00;;
21416;SDS011;10869;52.238;10.716;2022-10-16T15:36:38;1.47;;;0.60;;
21416;SDS011;10869;52.238;10.716;2022-10-16T15:39:15;2.70;;;1.10;;
21416;SDS011;10869;52.238;10.716;2022-10-16T15:41:42;3.43;;;0.73;;
21416;SDS011;10869;52.238;10.716;2022-10-16T15:47:32;1.13;;;0.53;;
21416;SDS011;10869;52.238;10.716;2022-10-16T15:49:58;2.63;;;0.80;;
21416;SDS011;10869;52.238;10.716;2022-10-16T15:52:24;5.87;;;1.10;;
21416;SDS011;10869;52.238;10.716;2022-10-16T15:54:50;1.80;;;1.17;;
21416;SDS011;10869;52.238;10.716;2022-10-16T15:57:15;2.57;;;1.13;;
21416;SDS011;10869;52.238;10.716;2022-10-16T15:59:41;2.07;;;0.67;;
21416;SDS011;10869;52.238;10.716;2022-10-16T16:02:12;2.80;;;1.00;;
21416;SDS011;10869;52.238;10.716;2022-10-16T16:08:00;4.67;;;0.83;;
21416;SDS011;10869;52.238;10.716;2022-10-16T16:10:31;5.70;;;1.30;;
21416;SDS011;10869;52.238;10.716;2022-10-16T16:16:20;5.90;;;1.50;;
21416;SDS011;10869;52.238;10.716;2022-10-16T16:18:47;4.50;;;1.33;;
21416;SDS011;10869;52.238;10.716;2022-10-16T16:24:38;3.40;;;0.70;;
21416;SDS011;10869;52.238;10.716;2022-10-16T16:30:29;2.30;;;0.97;;
21416;SDS011;10869;52.238;10.716;2022-10-16T17:14:46;3.70;;;0.90;;
21416;SDS011;10869;52.238;10.716;2022-10-16T18:03:56;2.00;;;0.57;;
21416;SDS011;10869;52.238;10.716;2022-10-16T18:06:24;2.63;;;0.80;;
21416;SDS011;10869;52.238;10.716;2022-10-16T18:08:51;1.50;;;0.70;;
21416;SDS011;10869;52.238;10.716;2022-10-16T18:11:18;5.17;;;0.80;;
21416;SDS011;10869;52.238;10.716;2022-10-16T18:13:45;4.00;;;0.77;;
21416;SDS011;10869;52.238;10.716;2022-10-16T18:16:12;1.43;;;0.50;;
21416;SDS011;10869;52.238;10.716;2022-10-16T18:18:39;7.57;;;1.00;;
21416;SDS011;10869;52.238;10.716;2022-10-16T18:21:06;3.93;;;0.77;;
21416;SDS011;10869;52.238;10.716;2022-10-16T18:23:34;5.07;;;1.03;;
21416;SDS011;10869;52.238;10.716;2022-10-16T18:26:02;5.63;;;0.90;;
21416;SDS011;10869;52.238;10.716;2022-10-16T18:28:28;3.23;;;0.67;;
21416;SDS011;10869;52.238;10.716;2022-10-16T18:34:16;5.30;;;0.83;;
21416;SDS011;10869;52.238;10.716;2022-10-16T18:40:04;10.13;;;1.00;;
21416;SDS011;10869;52.238;10.716;2022-10-16T18:42:30;4.53;;;0.90;;
21416;SDS011;10869;52.238;10.716;2022-10-16T18:44:56;4.00;;;1.00;;
21416;SDS011;10869;52.238;10.716;2022-10-16T18:47:22;3.50;;;1.20;;
21416;SDS011;10869;52.238;10.716;2022-10-16T18:53:09;1.67;;;0.50;;
21416;SDS011;10869;52.238;10.716;2022-10-16T18:58:58;4.20;;;0.80;;
21416;SDS011;10869;52.238;10.716;2022-10-16T19:04:47;3.90;;;0.60;;
21416;SDS011;10869;52.238;10.716;2022-10-16T19:07:13;5.50;;;0.60;;
21416;SDS011;10869;52.238;10.716;2022-10-16T19:09:40;3.70;;;0.67;;
21416;SDS011;10869;52.238;10.716;2022-10-16T19:12:06;1.50;;;0.50;;
21416;SDS011;10869;52.238;10.716;2022-10-16T19:14:32;4.30;;;0.60;;
21416;SDS011;10869;52.238;10.716;2022-10-16T19:16:58;4.60;;;0.70;;
21416;SDS011;10869;52.238;10.716;2022-10-16T19:19:24;2.47;;;0.60;;
21416;SDS011;10869;52.238;10.716;2022-10-16T19:21:51;1.80;;;0.63;;
21416;SDS011;10869;52.238;10.716;2022-10-16T19:24:25;2.60;;;0.50;;
21416;SDS011;10869;52.238;10.716;2022-10-16T19:26:51;3.90;;;0.67;;
21416;SDS011;10869;52.238;10.716;2022-10-16T19:29:17;5.63;;;0.90;;
21416;SDS011;10869;52.238;10.716;2022-10-16T19:31:43;2.50;;;0.60;;
21416;SDS011;10869;52.238;10.716;2022-10-16T19:34:09;3.40;;;0.83;;
21416;SDS011;10869;52.238;10.716;2022-10-16T19:36:36;3.03;;;0.77;;
21416;SDS011;10869;52.238;10.716;2022-10-16T19:39:03;3.47;;;0.60;;
21416;SDS011;10869;52.238;10.716;2022-10-16T19:41:36;2.27;;;0.77;;
21416;SDS011;10869;52.238;10.716;2022-10-16T19:44:02;3.47;;;0.70;;
21416;SDS011;10869;52.238;10.716;2022-10-16T19:46:31;5.83;;;0.60;;
21416;SDS011;10869;52.238;10.716;2022-10-16T19:48:59;2.93;;;0.67;;
21416;SDS011;10869;52.238;10.716;2022-10-16T19:51:26;2.53;;;0.60;;
21416;SDS011;10869;52.238;10.716;2022-10-16T19:53:53;2.00;;;0.80;;
21416;SDS011;10869;52.238;10.716;2022-10-16T19:56:22;4.83;;;0.73;;
21416;SDS011;10869;52.238;10.716;2022-10-16T19:58:49;4.13;;;0.63;;
21416;SDS011;10869;52.238;10.716;2022-10-16T20:04:38;5.03;;;0.60;;
21416;SDS011;10869;52.238;10.716;2022-10-16T20:07:03;5.33;;;0.77;;
21416;SDS011;10869;52.238;10.716;2022-10-16T20:09:31;5.97;;;0.70;;
21416;SDS011;10869;52.238;10.716;2022-10-16T20:11:58;2.20;;;0.70;;
21416;SDS011;10869;52.238;10.716;2022-10-16T20:14:24;1.30;;;0.57;;
21416;SDS011;10869;52.238;10.716;2022-10-16T20:16:49;3.80;;;0.57;;
21416;SDS011;10869;52.238;10.716;2022-10-16T20:19:17;2.03;;;0.60;;
21416;SDS011;10869;52.238;10.716;2022-10-16T20:21:46;4.50;;;0.57;;
21416;SDS011;10869;52.238;10.716;2022-10-16T20:24:12;0.80;;;0.50;;
21416;SDS011;10869;52.238;10.716;2022-10-16T20:26:38;2.53;;;0.70;;
21416;SDS011;10869;52.238;10.716;2022-10-16T20:29:04;1.70;;;0.77;;
21416;SDS011;10869;52.238;10.716;2022-10-16T20:31:30;2.90;;;0.50;;
21416;SDS011;10869;52.238;10.716;2022-10-16T20:34:00;2.13;;;0.50;;
21416;SDS011;10869;52.238;10.716;2022-10-16T20:36:28;3.97;;;0.63;;
21416;SDS011;10869;52.238;10.716;2022-10-16T20:38:57;2.63;;;0.70;;
21416;SDS011;10869;52.238;10.716;2022-10-16T20:41:26;3.13;;;0.67;;
21416;SDS011;10869;52.238;10.716;2022-10-16T20:43:52;2.23;;;0.67;;
21416;SDS011;10869;52.238;10.716;2022-10-16T20:46:21;3.93;;;1.10;;
21416;SDS011;10869;52.238;10.716;2022-10-16T20:48:49;4.83;;;1.37;;
21416;SDS011;10869;52.238;10.716;2022-10-16T20:51:20;3.10;;;0.90;;
21416;SDS011;10869;52.238;10.716;2022-10-16T20:53:54;4.53;;;1.37;;
21416;SDS011;10869;52.238;10.716;2022-10-16T20:56:22;5.33;;;0.93;;
